createdAt,value
2023-05-17T00:00:20.001Z,3.66
2023-05-17T00:01:20.029Z,2.99
2023-05-17T00:02:20.022Z,3.08
2023-05-17T00:03:19.077Z,3.38
2023-05-17T00:04:20.103Z,3.32
2023-05-17T00:05:19.037Z,2.96
2023-05-17T00:06:20.139Z,3.14
2023-05-17T00:07:20.084Z,2.90
2023-05-17T00:08:19.116Z,2.82
2023-05-17T00:09:20.130Z,3.05
2023-05-17T00:10:19.131Z,3.44
2023-05-17T00:11:19.311Z,2.87
2023-05-17T00:12:20.188Z,2.64
2023-05-17T00:13:20.225Z,3.40
2023-05-17T00:14:20.230Z,2.59
2023-05-17T00:15:20.285Z,2.80
2023-05-17T00:16:20.325Z,3.02
2023-05-17T00:17:20.304Z,2.53
2023-05-17T00:18:19.405Z,3.27
2023-05-17T00:19:19.482Z,2.96
2023-05-17T00:20:20.352Z,2.80
2023-05-17T00:21:19.431Z,3.20
2023-05-17T00:22:20.427Z,3.45
2023-05-17T00:23:20.455Z,2.61
2023-05-17T00:24:20.508Z,2.78
2023-05-17T00:25:20.478Z,3.10
2023-05-17T00:26:20.523Z,3.22
2023-05-17T00:27:20.643Z,2.92
2023-05-17T00:28:20.578Z,3.05
2023-05-17T00:29:20.626Z,2.97
2023-05-17T00:30:19.587Z,2.51
2023-05-17T00:31:20.614Z,2.58
2023-05-17T00:32:19.645Z,2.84
2023-05-17T00:33:19.663Z,3.26
2023-05-17T00:34:20.689Z,2.97
2023-05-17T00:35:20.795Z,2.89
2023-05-17T00:36:20.745Z,3.08
2023-05-17T00:37:19.792Z,3.37
2023-05-17T00:38:19.771Z,2.71
2023-05-17T00:39:19.878Z,2.66
2023-05-17T00:40:20.829Z,3.24
2023-05-17T00:41:20.877Z,3.08
2023-05-17T00:42:19.869Z,2.44
2023-05-17T00:43:21.023Z,2.94
2023-05-17T00:44:19.911Z,2.75
2023-05-17T00:45:19.919Z,2.81
2023-05-17T00:46:19.940Z,2.76
2023-05-17T00:47:20.051Z,2.79
2023-05-17T00:48:20.160Z,2.54
2023-05-17T00:49:21.048Z,2.93
2023-05-17T00:50:21.035Z,2.31
2023-05-17T00:51:21.091Z,2.93
2023-05-17T00:52:21.129Z,2.91
2023-05-17T00:53:20.145Z,2.61
2023-05-17T00:54:21.187Z,2.52
2023-05-17T00:55:21.198Z,2.51
2023-05-17T00:56:21.260Z,2.34
2023-05-17T00:57:21.255Z,3.01
2023-05-17T00:58:20.274Z,2.56
2023-05-17T00:59:21.444Z,2.87
2023-05-17T01:00:21.343Z,3.16
2023-05-17T01:01:20.358Z,2.43
2023-05-17T01:02:20.405Z,2.88
2023-05-17T01:03:21.513Z,2.35
2023-05-17T01:04:20.465Z,2.78
2023-05-17T01:05:21.473Z,2.57
2023-05-17T01:06:20.501Z,2.33
2023-05-17T01:07:20.514Z,2.61
2023-05-17T01:08:21.541Z,2.82
2023-05-17T01:09:21.595Z,3.14
2023-05-17T01:10:21.609Z,3.04
2023-05-17T01:11:20.649Z,2.25
2023-05-17T01:12:21.664Z,2.24
2023-05-17T01:13:21.661Z,2.40
2023-05-17T01:14:20.725Z,3.08
2023-05-17T01:15:20.832Z,3.15
2023-05-17T01:16:21.750Z,3.04
2023-05-17T01:17:20.871Z,2.60
2023-05-17T01:18:20.924Z,3.11
2023-05-17T01:19:21.920Z,3.21
2023-05-17T01:20:20.954Z,2.26
2023-05-17T01:21:21.905Z,2.52
2023-05-17T01:22:20.940Z,2.52
2023-05-17T01:23:20.979Z,3.01
2023-05-17T01:24:22.004Z,2.40
2023-05-17T01:25:22.029Z,2.60
2023-05-17T01:26:21.084Z,2.57
2023-05-17T01:27:21.105Z,2.73
2023-05-17T01:28:22.119Z,3.14
2023-05-17T01:29:21.202Z,2.28
2023-05-17T01:30:22.195Z,2.53
2023-05-17T01:31:21.309Z,2.57
2023-05-17T01:32:22.324Z,3.02
2023-05-17T01:33:22.349Z,3.09
2023-05-17T01:34:22.345Z,2.79
2023-05-17T01:35:22.333Z,3.01
2023-05-17T01:36:21.350Z,2.67
2023-05-17T01:37:21.402Z,2.40
2023-05-17T01:38:21.409Z,2.25
2023-05-17T01:39:22.452Z,2.74
2023-05-17T01:40:21.493Z,2.65
2023-05-17T01:41:22.508Z,2.64
2023-05-17T01:42:22.600Z,2.70
2023-05-17T01:43:21.531Z,2.40
2023-05-17T01:44:22.645Z,2.73
2023-05-17T01:45:22.614Z,2.49
2023-05-17T01:46:22.612Z,2.51
2023-05-17T01:47:22.713Z,2.51
2023-05-17T01:48:22.814Z,2.37
2023-05-17T01:49:22.671Z,2.68
2023-05-17T01:50:21.708Z,2.10
2023-05-17T01:51:22.752Z,2.71
2023-05-17T01:52:22.783Z,2.53
2023-05-17T01:53:22.785Z,2.13
2023-05-17T01:54:22.825Z,2.50
2023-05-17T01:55:21.857Z,2.25
2023-05-17T01:56:22.890Z,2.87
2023-05-17T01:57:21.944Z,2.84
2023-05-17T01:58:22.942Z,2.60
2023-05-17T01:59:21.939Z,2.31
2023-05-17T02:00:21.964Z,2.74
2023-05-17T02:01:23.028Z,1.98
2023-05-17T02:02:23.062Z,2.92
2023-05-17T02:03:22.190Z,2.77
2023-05-17T02:04:23.192Z,2.19
2023-05-17T02:05:22.110Z,2.36
2023-05-17T02:06:22.164Z,2.01
2023-05-17T02:07:23.194Z,2.79
2023-05-17T02:08:23.189Z,2.37
2023-05-17T02:09:22.270Z,2.38
2023-05-17T02:10:23.245Z,2.71
2023-05-17T02:11:23.275Z,2.22
2023-05-17T02:12:23.372Z,2.16
2023-05-17T02:13:23.359Z,2.17
2023-05-17T02:14:22.437Z,2.05
2023-05-17T02:15:22.442Z,2.43
2023-05-17T02:16:22.443Z,2.23
2023-05-17T02:17:22.580Z,2.44
2023-05-17T02:18:22.721Z,2.33
2023-05-17T02:19:23.578Z,2.26
2023-05-17T02:20:23.574Z,2.28
2023-05-17T02:21:22.587Z,1.88
2023-05-17T02:22:23.610Z,2.09
2023-05-17T02:23:23.630Z,2.69
2023-05-17T02:24:23.720Z,2.06
2023-05-17T02:25:23.680Z,2.96
2023-05-17T02:26:23.726Z,1.92
2023-05-17T02:27:23.762Z,2.34
2023-05-17T02:28:22.798Z,2.24
2023-05-17T02:29:22.857Z,2.41
2023-05-17T02:30:23.874Z,2.24
2023-05-17T02:31:23.869Z,2.11
2023-05-17T02:32:24.014Z,2.43
2023-05-17T02:33:24.192Z,2.42
2023-05-17T02:34:22.988Z,2.49
2023-05-17T02:35:24.192Z,2.22
2023-05-17T02:36:24.014Z,2.59
2023-05-17T02:37:23.071Z,2.52
2023-05-17T02:38:24.097Z,2.37
2023-05-17T02:39:24.205Z,2.10
2023-05-17T02:40:24.189Z,2.54
2023-05-17T02:41:24.213Z,2.29
2023-05-17T02:42:24.277Z,2.51
2023-05-17T02:43:23.265Z,1.93
2023-05-17T02:44:24.355Z,2.12
2023-05-17T02:45:23.353Z,2.26
2023-05-17T02:46:23.393Z,2.41
2023-05-17T02:47:23.463Z,2.48
2023-05-17T02:48:24.541Z,2.41
2023-05-17T02:49:23.480Z,2.15
2023-05-17T02:50:24.518Z,1.91
2023-05-17T02:51:24.645Z,2.03
2023-05-17T02:52:24.581Z,1.81
2023-05-17T02:53:24.623Z,2.18
2023-05-17T02:54:24.633Z,2.27
2023-05-17T02:55:23.679Z,2.15
2023-05-17T02:56:24.715Z,1.82
2023-05-17T02:57:23.732Z,2.16
2023-05-17T02:58:24.780Z,2.47
2023-05-17T02:59:23.801Z,2.50
2023-05-17T03:00:24.860Z,2.32
2023-05-17T03:01:24.873Z,2.14
2023-05-17T03:02:23.961Z,1.78
2023-05-17T03:03:25.027Z,2.13
2023-05-17T03:04:24.013Z,2.23
2023-05-17T03:05:24.057Z,2.05
2023-05-17T03:06:25.071Z,1.91
2023-05-17T03:07:24.204Z,2.03
2023-05-17T03:08:24.164Z,2.07
2023-05-17T03:09:25.230Z,2.44
2023-05-17T03:10:25.248Z,2.34
2023-05-17T03:11:25.272Z,2.09
2023-05-17T03:12:26.107Z,2.47
2023-05-17T03:13:24.288Z,1.55
2023-05-17T03:14:24.338Z,2.40
2023-05-17T03:15:24.291Z,2.05
2023-05-17T03:16:25.284Z,1.83
2023-05-17T03:17:25.367Z,2.02
2023-05-17T03:18:25.306Z,2.09
2023-05-17T03:19:24.403Z,1.94
2023-05-17T03:20:25.353Z,2.17
2023-05-17T03:21:25.262Z,2.39
2023-05-17T03:22:24.228Z,1.60
2023-05-17T03:23:25.353Z,2.08
2023-05-17T03:24:25.282Z,2.25
2023-05-17T03:25:25.245Z,2.19
2023-05-17T03:26:24.219Z,1.90
2023-05-17T03:27:24.267Z,2.12
2023-05-17T03:28:25.188Z,2.08
2023-05-17T03:29:25.211Z,2.10
2023-05-17T03:30:24.242Z,2.35
2023-05-17T03:31:25.184Z,2.08
2023-05-17T03:32:24.192Z,2.23
2023-05-17T03:33:25.311Z,2.14
2023-05-17T03:34:25.138Z,1.81
2023-05-17T03:35:25.159Z,2.15
2023-05-17T03:36:24.127Z,2.45
2023-05-17T03:37:25.128Z,2.36
2023-05-17T03:38:25.123Z,1.87
2023-05-17T03:39:25.262Z,1.93
2023-05-17T03:40:24.133Z,2.15
2023-05-17T03:41:24.140Z,2.23
2023-05-17T03:42:24.103Z,1.90
2023-05-17T03:43:24.077Z,2.44
2023-05-17T03:44:25.068Z,2.31
2023-05-17T03:45:25.148Z,2.21
2023-05-17T03:46:25.121Z,1.78
2023-05-17T03:47:25.094Z,1.90
2023-05-17T03:48:25.176Z,1.74
2023-05-17T03:49:25.204Z,2.14
2023-05-17T03:50:25.229Z,2.31
2023-05-17T03:51:24.268Z,2.02
2023-05-17T03:52:25.362Z,2.08
2023-05-17T03:53:25.359Z,2.39
2023-05-17T03:54:25.436Z,1.72
2023-05-17T03:55:24.565Z,2.12
2023-05-17T03:56:24.526Z,2.12
2023-05-17T03:57:24.546Z,1.93
2023-05-17T03:58:24.626Z,2.15
2023-05-17T03:59:25.668Z,1.96
2023-05-17T04:00:25.701Z,2.13
2023-05-17T04:01:24.741Z,1.87
2023-05-17T04:02:24.788Z,2.05
2023-05-17T04:03:25.805Z,1.97
2023-05-17T04:04:24.958Z,2.39
2023-05-17T04:05:24.919Z,1.82
2023-05-17T04:06:25.932Z,2.07
2023-05-17T04:07:25.976Z,1.98
2023-05-17T04:08:26.046Z,1.80
2023-05-17T04:09:26.090Z,1.57
2023-05-17T04:10:26.132Z,1.89
2023-05-17T04:11:25.260Z,1.97
2023-05-17T04:12:26.224Z,1.66
2023-05-17T04:13:25.251Z,1.79
2023-05-17T04:14:25.365Z,2.05
2023-05-17T04:15:25.360Z,1.95
2023-05-17T04:16:26.403Z,2.06
2023-05-17T04:17:25.438Z,1.81
2023-05-17T04:18:26.596Z,2.34
2023-05-17T04:19:25.653Z,2.13
2023-05-17T04:20:26.583Z,1.56
2023-05-17T04:21:26.688Z,2.00
2023-05-17T04:22:26.684Z,1.74
2023-05-17T04:23:25.735Z,1.91
2023-05-17T04:24:25.768Z,1.59
2023-05-17T04:25:27.031Z,1.83
2023-05-17T04:26:26.835Z,1.83
2023-05-17T04:27:25.979Z,1.51
2023-05-17T04:28:26.940Z,1.67
2023-05-17T04:29:25.954Z,1.91
2023-05-17T04:30:25.998Z,2.01
2023-05-17T04:31:26.076Z,2.07
2023-05-17T04:32:27.141Z,1.45
2023-05-17T04:33:26.288Z,1.88
2023-05-17T04:34:27.224Z,2.00
2023-05-17T04:35:27.429Z,2.05
2023-05-17T04:36:26.284Z,1.48
2023-05-17T04:37:26.363Z,1.53
2023-05-17T04:38:26.394Z,1.51
2023-05-17T04:39:27.225Z,1.86
2023-05-17T04:40:26.476Z,2.08
2023-05-17T04:41:27.506Z,1.85
2023-05-17T04:42:26.570Z,1.82
2023-05-17T04:43:27.650Z,1.74
2023-05-17T04:44:27.619Z,1.70
2023-05-17T04:45:27.895Z,2.02
2023-05-17T04:46:26.747Z,2.01
2023-05-17T04:47:26.843Z,1.65
2023-05-17T04:48:26.876Z,1.67
2023-05-17T04:49:27.885Z,1.93
2023-05-17T04:50:27.914Z,2.02
2023-05-17T04:51:27.961Z,1.86
2023-05-17T04:52:28.018Z,1.96
2023-05-17T04:53:28.030Z,1.43
2023-05-17T04:54:28.059Z,2.11
2023-05-17T04:55:28.247Z,1.42
2023-05-17T04:56:28.126Z,1.43
2023-05-17T04:57:28.222Z,1.74
2023-05-17T04:58:28.230Z,1.97
2023-05-17T04:59:27.376Z,2.02
2023-05-17T05:00:28.344Z,1.94
2023-05-17T05:01:28.353Z,1.63
2023-05-17T05:02:28.447Z,1.76
2023-05-17T05:03:28.627Z,1.54
2023-05-17T05:04:27.571Z,1.58
2023-05-17T05:05:27.738Z,2.12
2023-05-17T05:06:28.569Z,1.60
2023-05-17T05:07:27.638Z,1.77
2023-05-17T05:08:28.668Z,1.68
2023-05-17T05:09:28.744Z,1.77
2023-05-17T05:10:28.820Z,1.46
2023-05-17T05:11:28.788Z,2.17
2023-05-17T05:12:28.956Z,1.46
2023-05-17T05:13:28.871Z,1.59
2023-05-17T05:14:27.963Z,1.82
2023-05-17T05:15:29.379Z,1.42
2023-05-17T05:16:27.980Z,1.46
2023-05-17T05:17:29.071Z,1.90
2023-05-17T05:18:29.206Z,1.61
2023-05-17T05:19:28.172Z,1.50
2023-05-17T05:20:29.237Z,1.50
2023-05-17T05:21:29.189Z,1.61
2023-05-17T05:22:28.229Z,1.73
2023-05-17T05:23:28.266Z,1.83
2023-05-17T05:24:29.341Z,1.71
2023-05-17T05:25:29.702Z,1.41
2023-05-17T05:26:28.400Z,1.61
2023-05-17T05:27:28.429Z,1.30
2023-05-17T05:28:28.496Z,1.91
2023-05-17T05:29:29.564Z,2.07
2023-05-17T05:30:29.795Z,1.91
2023-05-17T05:31:29.800Z,2.16
2023-05-17T05:32:28.615Z,1.45
2023-05-17T05:33:29.783Z,1.61
2023-05-17T05:34:29.766Z,1.82
2023-05-17T05:35:30.105Z,2.15
2023-05-17T05:36:29.678Z,2.34
2023-05-17T05:37:29.674Z,1.87
2023-05-17T05:38:28.789Z,1.94
2023-05-17T05:39:28.735Z,1.74
2023-05-17T05:40:29.956Z,2.07
2023-05-17T05:41:29.806Z,1.61
2023-05-17T05:42:28.775Z,1.87
2023-05-17T05:43:28.799Z,2.04
2023-05-17T05:44:29.959Z,2.05
2023-05-17T05:45:29.124Z,1.99
2023-05-17T05:46:29.866Z,2.00
2023-05-17T05:47:29.957Z,2.21
2023-05-17T05:48:29.184Z,2.04
2023-05-17T05:49:29.974Z,2.38
2023-05-17T05:50:30.198Z,2.17
2023-05-17T05:51:29.210Z,1.96
2023-05-17T05:52:30.152Z,2.29
2023-05-17T05:53:29.136Z,2.06
2023-05-17T05:54:30.185Z,2.33
2023-05-17T05:55:29.459Z,2.68
2023-05-17T05:56:29.239Z,2.53
2023-05-17T05:57:30.256Z,2.55
2023-05-17T05:58:29.299Z,3.29
2023-05-17T05:59:30.250Z,3.28
2023-05-17T06:00:30.853Z,3.53
2023-05-17T06:01:30.315Z,4.21
2023-05-17T06:02:29.486Z,4.14
2023-05-17T06:03:30.533Z,4.10
2023-05-17T06:04:40.616Z,4.15
2023-05-17T06:05:30.990Z,3.77
2023-05-17T06:06:30.570Z,3.90
2023-05-17T06:07:30.431Z,3.60
2023-05-17T06:08:30.429Z,4.49
2023-05-17T06:09:30.409Z,3.85
2023-05-17T06:10:30.918Z,4.20
2023-05-17T06:11:29.381Z,4.01
2023-05-17T06:12:29.556Z,3.84
2023-05-17T06:13:29.386Z,4.00
2023-05-17T06:14:29.482Z,4.67
2023-05-17T06:15:32.413Z,3.98
2023-05-17T06:16:29.370Z,4.68
2023-05-17T06:17:29.646Z,4.22
2023-05-17T06:18:30.689Z,4.45
2023-05-17T06:19:30.683Z,3.88
2023-05-17T06:20:29.986Z,4.14
2023-05-17T06:21:30.428Z,3.86
2023-05-17T06:22:30.406Z,3.95
2023-05-17T06:23:30.365Z,3.57
2023-05-17T06:24:29.398Z,4.38
2023-05-17T06:25:30.794Z,3.74
2023-05-17T06:26:29.446Z,3.46
2023-05-17T06:27:30.422Z,3.13
2023-05-17T06:28:30.392Z,3.40
2023-05-17T06:29:29.352Z,3.66
2023-05-17T06:30:37.908Z,3.41
2023-05-17T06:31:30.329Z,3.94
2023-05-17T06:32:30.304Z,3.98
2023-05-17T06:33:29.309Z,3.61
2023-05-17T06:34:30.564Z,4.16
2023-05-17T06:35:37.524Z,3.48
2023-05-17T06:36:32.300Z,3.03
2023-05-17T06:37:29.671Z,3.20
2023-05-17T06:38:30.435Z,3.58
2023-05-17T06:39:30.259Z,3.09
2023-05-17T06:40:30.232Z,3.25
2023-05-17T06:41:29.195Z,3.57
2023-05-17T06:42:30.390Z,3.07
2023-05-17T06:43:30.188Z,3.04
2023-05-17T06:44:30.185Z,3.48
2023-05-17T06:45:30.440Z,2.84
2023-05-17T06:46:29.162Z,3.41
2023-05-17T06:47:30.324Z,4.14
2023-05-17T06:48:29.879Z,3.25
2023-05-17T06:49:30.300Z,3.13
2023-05-17T06:50:30.738Z,3.31
2023-05-17T06:51:30.215Z,3.88
2023-05-17T06:52:30.133Z,3.31
2023-05-17T06:53:30.511Z,2.97
2023-05-17T06:54:30.335Z,3.38
2023-05-17T06:55:31.876Z,3.27
2023-05-17T06:56:30.777Z,3.32
2023-05-17T06:57:30.423Z,2.85
2023-05-17T06:58:29.132Z,3.66
2023-05-17T06:59:29.130Z,2.83
2023-05-17T07:00:30.793Z,3.28
2023-05-17T07:01:29.215Z,3.16
2023-05-17T07:02:31.887Z,3.96
2023-05-17T07:03:29.275Z,3.45
2023-05-17T07:04:31.005Z,3.49
2023-05-17T07:05:29.496Z,3.31
2023-05-17T07:06:30.679Z,2.72
2023-05-17T07:07:30.829Z,3.24
2023-05-17T07:08:29.221Z,3.25
2023-05-17T07:09:30.194Z,3.01
2023-05-17T07:10:29.223Z,3.22
2023-05-17T07:11:30.109Z,3.81
2023-05-17T07:12:29.355Z,2.87
2023-05-17T07:13:31.046Z,2.69
2023-05-17T07:14:30.052Z,3.14
2023-05-17T07:15:30.469Z,2.96
2023-05-17T07:16:30.142Z,3.19
2023-05-17T07:17:30.279Z,3.15
2023-05-17T07:18:29.178Z,3.18
2023-05-17T07:19:30.382Z,2.64
2023-05-17T07:20:30.624Z,2.97
2023-05-17T07:21:29.305Z,2.60
2023-05-17T07:22:30.326Z,2.61
2023-05-17T07:23:30.457Z,3.15
2023-05-17T07:24:30.285Z,2.33
2023-05-17T07:25:30.702Z,2.63
2023-05-17T07:26:30.314Z,2.49
2023-05-17T07:27:29.402Z,3.14
2023-05-17T07:28:30.913Z,2.98
2023-05-17T07:29:29.324Z,2.78
2023-05-17T07:30:29.246Z,2.45
2023-05-17T07:31:30.696Z,2.97
2023-05-17T07:32:30.419Z,2.59
2023-05-17T07:33:30.294Z,2.99
2023-05-17T07:34:29.636Z,2.76
2023-05-17T07:35:29.702Z,2.58
2023-05-17T07:36:29.405Z,3.38
2023-05-17T07:37:30.532Z,2.50
2023-05-17T07:38:30.610Z,2.59
2023-05-17T07:39:30.543Z,1.86
2023-05-17T07:40:30.550Z,2.67
2023-05-17T07:41:30.521Z,3.62
2023-05-17T07:42:29.413Z,2.74
2023-05-17T07:43:30.689Z,3.23
2023-05-17T07:44:30.471Z,2.60
2023-05-17T07:45:29.704Z,3.36
2023-05-17T07:46:30.747Z,2.76
2023-05-17T07:47:30.578Z,2.51
2023-05-17T07:48:30.075Z,3.30
2023-05-17T07:49:31.610Z,3.16
2023-05-17T07:50:30.573Z,3.26
2023-05-17T07:51:29.670Z,2.78
2023-05-17T07:52:30.632Z,2.75
2023-05-17T07:53:29.694Z,3.26
2023-05-17T07:54:30.690Z,3.23
2023-05-17T07:55:29.978Z,4.33
2023-05-17T07:56:30.743Z,3.14
2023-05-17T07:57:29.771Z,4.11
2023-05-17T07:58:30.832Z,2.73
2023-05-17T07:59:30.868Z,3.20
2023-05-17T08:00:30.866Z,3.17
2023-05-17T08:01:30.900Z,2.73
2023-05-17T08:02:29.954Z,3.10
2023-05-17T08:03:30.953Z,3.54
2023-05-17T08:04:31.049Z,3.78
2023-05-17T08:05:31.506Z,3.03
2023-05-17T08:06:31.133Z,3.44
2023-05-17T08:07:31.119Z,3.26
2023-05-17T08:08:31.159Z,3.56
2023-05-17T08:09:31.220Z,3.45
2023-05-17T08:10:31.397Z,3.15
2023-05-17T08:11:32.407Z,2.76
2023-05-17T08:12:30.325Z,2.63
2023-05-17T08:13:31.306Z,2.33
2023-05-17T08:14:31.302Z,3.04
2023-05-17T08:15:31.398Z,4.25
2023-05-17T08:16:31.284Z,2.60
2023-05-17T08:17:31.369Z,2.66
2023-05-17T08:18:30.361Z,3.00
2023-05-17T08:19:30.537Z,3.39
2023-05-17T08:20:31.286Z,3.09
2023-05-17T08:21:30.251Z,3.13
2023-05-17T08:22:31.247Z,2.66
2023-05-17T08:23:31.244Z,3.56
2023-05-17T08:24:30.230Z,3.01
2023-05-17T08:25:30.473Z,2.87
2023-05-17T08:26:31.248Z,3.57
2023-05-17T08:27:31.214Z,2.60
2023-05-17T08:28:31.191Z,3.80
2023-05-17T08:29:30.194Z,3.13
2023-05-17T08:30:31.174Z,3.02
2023-05-17T08:31:30.200Z,2.55
2023-05-17T08:32:30.184Z,2.51
2023-05-17T08:33:30.314Z,2.88
2023-05-17T08:34:31.192Z,3.36
2023-05-17T08:35:31.440Z,3.61
2023-05-17T08:36:31.141Z,3.40
2023-05-17T08:37:31.162Z,2.78
2023-05-17T08:38:31.165Z,3.56
2023-05-17T08:39:30.128Z,2.74
2023-05-17T08:40:31.494Z,3.26
2023-05-17T08:41:30.114Z,2.76
2023-05-17T08:42:30.230Z,3.01
2023-05-17T08:43:31.090Z,3.57
2023-05-17T08:44:31.162Z,3.50
2023-05-17T08:45:31.246Z,3.45
2023-05-17T08:46:31.189Z,4.69
2023-05-17T08:47:31.172Z,3.51
2023-05-17T08:48:30.215Z,3.52
2023-05-17T08:49:31.207Z,3.94
2023-05-17T08:50:30.637Z,3.90
2023-05-17T08:51:31.225Z,3.74
2023-05-17T08:52:30.383Z,4.68
2023-05-17T08:53:31.411Z,4.11
2023-05-17T08:54:31.442Z,4.58
2023-05-17T08:55:30.494Z,7.03
2023-05-17T08:56:30.709Z,4.98
2023-05-17T08:57:30.583Z,4.38
2023-05-17T08:58:34.102Z,4.58
2023-05-17T08:59:31.605Z,5.63
2023-05-17T09:00:31.588Z,4.55
2023-05-17T09:01:33.310Z,5.06
2023-05-17T09:02:31.691Z,5.31
2023-05-17T09:03:31.740Z,5.45
2023-05-17T09:04:30.598Z,4.42
2023-05-17T09:05:31.609Z,5.06
2023-05-17T09:06:31.577Z,3.53
2023-05-17T09:07:31.557Z,4.70
2023-05-17T09:08:31.550Z,4.42
2023-05-17T09:09:31.553Z,4.83
2023-05-17T09:10:31.607Z,4.60
2023-05-17T09:11:30.536Z,4.71
2023-05-17T09:12:31.550Z,3.92
2023-05-17T09:13:30.530Z,3.85
2023-05-17T09:14:30.585Z,4.21
2023-05-17T09:15:31.505Z,4.44
2023-05-17T09:16:31.493Z,3.82
2023-05-17T09:17:31.513Z,3.66
2023-05-17T09:18:31.550Z,3.50
2023-05-17T09:19:31.607Z,4.07
2023-05-17T09:20:31.523Z,3.33
2023-05-17T09:21:31.486Z,3.38
2023-05-17T09:22:31.475Z,4.30
2023-05-17T09:23:30.446Z,4.33
2023-05-17T09:24:31.490Z,4.11
2023-05-17T09:25:30.485Z,3.96
2023-05-17T09:26:31.449Z,4.93
2023-05-17T09:27:30.457Z,4.16
2023-05-17T09:28:31.486Z,4.22
2023-05-17T09:29:30.541Z,3.79
2023-05-17T09:30:32.053Z,4.80
2023-05-17T09:31:31.688Z,3.97
2023-05-17T09:32:31.712Z,3.53
2023-05-17T09:33:31.762Z,5.26
2023-05-17T09:34:31.793Z,4.13
2023-05-17T09:35:31.809Z,3.82
2023-05-17T09:36:30.862Z,4.08
2023-05-17T09:37:31.933Z,3.86
2023-05-17T09:38:31.944Z,4.28
2023-05-17T09:39:31.990Z,4.28
2023-05-17T09:40:32.041Z,4.24
2023-05-17T09:41:32.068Z,4.83
2023-05-17T09:42:32.101Z,3.04
2023-05-17T09:43:32.133Z,4.31
2023-05-17T09:44:32.184Z,4.36
2023-05-17T09:45:32.231Z,3.80
2023-05-17T09:46:32.269Z,4.25
2023-05-17T09:47:32.372Z,4.17
2023-05-17T09:48:32.393Z,5.46
2023-05-17T09:49:32.367Z,4.25
2023-05-17T09:50:32.514Z,5.67
2023-05-17T09:51:31.724Z,3.53
2023-05-17T09:52:31.519Z,5.30
2023-05-17T09:53:32.555Z,5.30
2023-05-17T09:54:32.609Z,3.94
2023-05-17T09:55:31.776Z,5.57
2023-05-17T09:56:32.697Z,5.89
2023-05-17T09:57:32.690Z,5.54
2023-05-17T09:58:31.742Z,4.94
2023-05-17T09:59:32.797Z,5.18
2023-05-17T10:00:32.831Z,5.07
2023-05-17T10:01:31.900Z,4.50
2023-05-17T10:02:31.979Z,3.49
2023-05-17T10:03:32.123Z,4.73
2023-05-17T10:04:33.036Z,4.75
2023-05-17T10:05:33.408Z,4.48
2023-05-17T10:06:45.989Z,5.30
2023-05-17T10:07:33.082Z,4.60
2023-05-17T10:08:32.073Z,3.51
2023-05-17T10:09:33.065Z,6.19
2023-05-17T10:10:33.084Z,4.14
2023-05-17T10:11:33.214Z,3.61
2023-05-17T10:12:33.090Z,4.31
2023-05-17T10:13:33.103Z,4.56
2023-05-17T10:14:33.182Z,5.11
2023-05-17T10:15:33.041Z,3.65
2023-05-17T10:16:32.040Z,4.10
2023-05-17T10:17:33.021Z,3.54
2023-05-17T10:18:33.215Z,3.93
2023-05-17T10:19:33.127Z,4.51
2023-05-17T10:20:32.018Z,4.46
2023-05-17T10:21:33.006Z,5.03
2023-05-17T10:22:31.979Z,4.13
2023-05-17T10:23:32.966Z,5.10
2023-05-17T10:24:31.963Z,4.98
2023-05-17T10:25:32.969Z,4.28
2023-05-17T10:26:32.994Z,5.04
2023-05-17T10:27:33.001Z,4.59
2023-05-17T10:28:33.079Z,4.67
2023-05-17T10:29:33.101Z,4.55
2023-05-17T10:30:33.127Z,4.37
2023-05-17T10:31:32.200Z,4.72
2023-05-17T10:32:32.263Z,4.37
2023-05-17T10:33:33.434Z,3.72
2023-05-17T10:34:33.369Z,3.56
2023-05-17T10:35:32.357Z,4.32
2023-05-17T10:36:32.507Z,4.26
2023-05-17T10:37:33.456Z,3.79
2023-05-17T10:38:41.664Z,4.35
2023-05-17T10:39:33.504Z,3.83
2023-05-17T10:40:33.487Z,4.10
2023-05-17T10:41:33.483Z,3.38
2023-05-17T10:42:33.758Z,4.79
2023-05-17T10:43:33.457Z,4.45
2023-05-17T10:44:32.461Z,2.84
2023-05-17T10:45:33.512Z,3.04
2023-05-17T10:46:33.440Z,3.45
2023-05-17T10:47:33.860Z,4.12
2023-05-17T10:48:33.438Z,3.26
2023-05-17T10:49:32.547Z,2.96
2023-05-17T10:50:33.452Z,4.16
2023-05-17T10:51:32.430Z,3.72
2023-05-17T10:52:32.391Z,3.66
2023-05-17T10:53:33.388Z,3.01
2023-05-17T10:54:32.368Z,3.08
2023-05-17T10:55:32.365Z,4.10
2023-05-17T10:56:33.374Z,3.91
2023-05-17T10:57:38.975Z,3.62
2023-05-17T10:58:33.374Z,2.74
2023-05-17T10:59:33.341Z,3.10
2023-05-17T11:00:33.369Z,3.27
2023-05-17T11:01:33.337Z,3.24
2023-05-17T11:02:33.349Z,3.82
2023-05-17T11:03:32.345Z,3.05
2023-05-17T11:04:33.377Z,3.24
2023-05-17T11:05:33.524Z,3.88
2023-05-17T11:06:33.466Z,2.89
2023-05-17T11:07:32.511Z,3.11
2023-05-17T11:08:32.318Z,3.71
2023-05-17T11:09:32.291Z,3.95
2023-05-17T11:10:33.304Z,3.31
2023-05-17T11:11:33.318Z,3.47
2023-05-17T11:12:33.918Z,3.59
2023-05-17T11:13:33.274Z,2.99
2023-05-17T11:14:32.247Z,3.36
2023-05-17T11:15:33.245Z,2.96
2023-05-17T11:16:33.220Z,2.98
2023-05-17T11:17:33.257Z,2.67
2023-05-17T11:18:36.412Z,2.95
2023-05-17T11:19:33.408Z,2.64
2023-05-17T11:20:32.682Z,3.36
2023-05-17T11:21:33.246Z,3.36
2023-05-17T11:22:33.287Z,3.20
2023-05-17T11:23:33.259Z,3.12
2023-05-17T11:24:32.240Z,2.48
2023-05-17T11:25:33.229Z,3.43
2023-05-17T11:26:33.214Z,2.99
2023-05-17T11:27:33.221Z,3.07
2023-05-17T11:28:33.209Z,3.16
2023-05-17T11:29:33.191Z,2.94
2023-05-17T11:30:32.424Z,2.65
2023-05-17T11:31:33.177Z,2.87
2023-05-17T11:32:33.265Z,3.45
2023-05-17T11:33:33.856Z,2.78
2023-05-17T11:34:32.298Z,2.85
2023-05-17T11:35:33.158Z,2.96
2023-05-17T11:36:33.155Z,3.49
2023-05-17T11:37:33.147Z,2.62
2023-05-17T11:38:33.231Z,2.90
2023-05-17T11:39:33.141Z,2.80
2023-05-17T11:40:32.279Z,2.54
2023-05-17T11:41:33.119Z,2.62
2023-05-17T11:42:32.143Z,2.65
2023-05-17T11:43:33.119Z,3.73
2023-05-17T11:44:33.103Z,2.80
2023-05-17T11:45:33.097Z,2.26
2023-05-17T11:46:33.116Z,2.59
2023-05-17T11:47:32.163Z,2.54
2023-05-17T11:48:33.193Z,2.45
2023-05-17T11:49:35.869Z,2.36
2023-05-17T11:50:33.082Z,2.26
2023-05-17T11:51:32.080Z,2.29
2023-05-17T11:52:32.066Z,2.49
2023-05-17T11:53:33.064Z,2.43
2023-05-17T11:54:33.111Z,3.22
2023-05-17T11:55:33.054Z,2.56
2023-05-17T11:56:42.212Z,2.73
2023-05-17T11:57:33.055Z,2.42
2023-05-17T11:58:33.038Z,2.28
2023-05-17T11:59:33.042Z,2.53
2023-05-17T12:00:32.099Z,2.65
2023-05-17T12:01:33.029Z,2.49
2023-05-17T12:02:33.170Z,2.64
2023-05-17T12:03:31.998Z,2.71
2023-05-17T12:04:33.383Z,2.35
2023-05-17T12:05:31.980Z,2.15
2023-05-17T12:06:32.010Z,2.82
2023-05-17T12:07:31.978Z,2.21
2023-05-17T12:08:31.970Z,2.39
2023-05-17T12:09:33.016Z,2.44
2023-05-17T12:10:34.814Z,2.08
2023-05-17T12:11:33.012Z,2.33
2023-05-17T12:12:33.261Z,2.25
2023-05-17T12:13:31.936Z,2.00
2023-05-17T12:14:32.971Z,2.67
2023-05-17T12:15:32.936Z,3.08
2023-05-17T12:16:32.928Z,2.48
2023-05-17T12:17:33.091Z,2.91
2023-05-17T12:18:31.975Z,2.79
2023-05-17T12:19:31.971Z,3.18
2023-05-17T12:20:33.205Z,3.87
2023-05-17T12:21:32.874Z,2.37
2023-05-17T12:22:31.881Z,2.73
2023-05-17T12:23:32.869Z,2.66
2023-05-17T12:24:31.887Z,2.83
2023-05-17T12:25:32.861Z,2.83
2023-05-17T12:26:31.866Z,1.96
2023-05-17T12:27:32.848Z,2.40
2023-05-17T12:28:32.852Z,2.50
2023-05-17T12:29:32.836Z,2.30
2023-05-17T12:30:31.837Z,2.64
2023-05-17T12:31:32.816Z,2.20
2023-05-17T12:32:32.873Z,2.21
2023-05-17T12:33:32.880Z,2.32
2023-05-17T12:34:31.802Z,3.10
2023-05-17T12:35:31.795Z,2.61
2023-05-17T12:36:31.786Z,2.44
2023-05-17T12:37:31.803Z,2.22
2023-05-17T12:38:31.804Z,3.11
2023-05-17T12:39:32.771Z,2.99
2023-05-17T12:40:32.799Z,2.28
2023-05-17T12:41:32.751Z,2.69
2023-05-17T12:42:31.793Z,2.09
2023-05-17T12:43:32.750Z,2.43
2023-05-17T12:44:32.752Z,2.38
2023-05-17T12:45:31.726Z,1.74
2023-05-17T12:46:31.742Z,2.42
2023-05-17T12:47:32.820Z,3.23
2023-05-17T12:48:31.815Z,2.07
2023-05-17T12:49:31.830Z,2.80
2023-05-17T12:50:31.882Z,2.11
2023-05-17T12:51:32.883Z,2.23
2023-05-17T12:52:31.907Z,2.74
2023-05-17T12:53:32.940Z,2.99
2023-05-17T12:54:31.964Z,2.92
2023-05-17T12:55:32.991Z,2.26
2023-05-17T12:56:33.023Z,2.62
2023-05-17T12:57:33.119Z,2.71
2023-05-17T12:58:33.117Z,2.59
2023-05-17T12:59:33.088Z,2.57
2023-05-17T13:00:32.134Z,2.42
2023-05-17T13:01:32.142Z,2.49
2023-05-17T13:02:33.218Z,2.28
2023-05-17T13:03:33.851Z,4.12
2023-05-17T13:04:33.617Z,3.14
2023-05-17T13:05:32.227Z,2.55
2023-05-17T13:06:32.258Z,2.56
2023-05-17T13:07:33.275Z,2.95
2023-05-17T13:08:32.301Z,2.74
2023-05-17T13:09:33.429Z,2.93
2023-05-17T13:10:32.488Z,2.47
2023-05-17T13:11:32.359Z,2.93
2023-05-17T13:12:32.389Z,3.33
2023-05-17T13:13:32.575Z,3.61
2023-05-17T13:14:32.517Z,2.61
2023-05-17T13:15:32.509Z,2.36
2023-05-17T13:16:32.526Z,2.75
2023-05-17T13:17:33.552Z,2.88
2023-05-17T13:18:33.609Z,2.71